createdAt,value
2023-07-21T00:01:58.424Z,54.64
2023-07-21T00:05:00.100Z,54.93
2023-07-21T00:08:01.738Z,54.81
2023-07-21T00:11:04.193Z,54.93
2023-07-21T00:14:11.197Z,55.00
2023-07-21T00:17:12.821Z,55.09
2023-07-21T00:20:20.830Z,55.01
2023-07-21T00:23:24.145Z,54.97
2023-07-21T00:26:26.149Z,55.16
2023-07-21T00:29:27.966Z,55.16
2023-07-21T00:32:32.436Z,55.04
2023-07-21T00:35:35.540Z,55.24
2023-07-21T00:38:37.080Z,55.26
2023-07-21T00:41:38.626Z,55.04
2023-07-21T00:44:40.189Z,55.34
2023-07-21T00:50:52.758Z,55.11
2023-07-21T00:53:55.309Z,55.39
2023-07-21T00:56:58.504Z,55.24
2023-07-21T01:00:01.557Z,55.17
2023-07-21T01:03:04.573Z,55.32
2023-07-21T01:06:08.824Z,55.57
2023-07-21T01:09:13.413Z,55.79
2023-07-21T01:12:15.539Z,55.86
2023-07-21T01:15:17.471Z,55.75
2023-07-21T01:18:20.656Z,55.91
2023-07-21T01:21:39.959Z,55.89
2023-07-21T01:25:10.524Z,55.83
2023-07-21T01:28:14.848Z,55.86
2023-07-21T01:31:18.062Z,55.98
2023-07-21T01:34:19.929Z,56.01
2023-07-21T01:37:24.450Z,55.87
2023-07-21T01:40:26.795Z,56.16
2023-07-21T01:43:28.610Z,56.35
2023-07-21T01:46:31.029Z,56.44
2023-07-21T01:49:32.644Z,56.50
2023-07-21T01:52:36.256Z,56.60
2023-07-21T01:55:44.224Z,56.45
2023-07-21T01:58:48.193Z,56.50
2023-07-21T02:01:55.049Z,56.25
2023-07-21T02:04:56.824Z,56.25
2023-07-21T02:07:59.172Z,56.58
2023-07-21T02:11:01.024Z,56.74
2023-07-21T02:14:21.274Z,56.59
2023-07-21T02:17:23.038Z,56.67
2023-07-21T02:20:24.643Z,56.66
2023-07-21T02:23:26.411Z,56.97
2023-07-21T02:26:28.378Z,56.85
2023-07-21T02:29:30.083Z,56.74
2023-07-21T02:32:31.812Z,56.82
2023-07-21T02:35:33.599Z,57.00
2023-07-21T02:38:35.262Z,56.97
2023-07-21T02:41:36.800Z,56.92
2023-07-21T02:44:38.464Z,56.87
2023-07-21T02:47:40.240Z,56.98
2023-07-21T02:50:42.430Z,56.74
2023-07-21T02:53:44.207Z,56.71
2023-07-21T02:56:45.851Z,56.95
2023-07-21T02:59:54.313Z,57.11
2023-07-21T03:03:04.880Z,57.19
2023-07-21T03:06:07.677Z,57.30
2023-07-21T03:09:10.744Z,57.18
2023-07-21T03:12:12.537Z,57.50
2023-07-21T03:15:34.091Z,57.38
2023-07-21T03:18:41.876Z,57.48
2023-07-21T03:21:47.669Z,57.72
2023-07-21T03:24:49.464Z,57.49
2023-07-21T03:27:52.911Z,57.42
2023-07-21T03:30:58.627Z,57.59
2023-07-21T03:34:00.325Z,57.41
2023-07-21T03:37:06.002Z,57.45
2023-07-21T03:40:08.729Z,57.55
2023-07-21T03:43:10.385Z,57.48
2023-07-21T03:46:13.758Z,57.35
2023-07-21T03:49:36.315Z,57.33
2023-07-21T03:52:43.976Z,57.47
2023-07-21T03:55:49.236Z,57.55
2023-07-21T03:58:50.781Z,57.62
2023-07-21T04:01:53.464Z,57.57
2023-07-21T04:04:55.209Z,57.84
2023-07-21T04:07:57.400Z,57.35
2023-07-21T04:10:58.970Z,57.27
2023-07-21T04:14:02.046Z,57.15
2023-07-21T04:17:03.917Z,57.16
2023-07-21T04:20:07.468Z,57.00
2023-07-21T04:23:10.188Z,57.60
2023-07-21T04:26:16.031Z,57.19
2023-07-21T04:29:29.843Z,57.21
2023-07-21T04:32:39.868Z,57.21
2023-07-21T04:35:47.074Z,57.30
2023-07-21T04:38:52.235Z,57.13
2023-07-21T04:41:55.558Z,57.36
2023-07-21T04:44:57.334Z,57.31
2023-07-21T04:47:59.159Z,57.37
2023-07-21T04:51:02.366Z,57.13
2023-07-21T04:54:04.115Z,57.25
2023-07-21T04:57:06.279Z,57.49
2023-07-21T05:00:13.007Z,57.35
2023-07-21T05:03:14.916Z,57.31
2023-07-21T05:06:18.253Z,57.50
2023-07-21T05:09:24.558Z,57.65
2023-07-21T05:12:28.060Z,57.78
2023-07-21T05:16:02.079Z,57.61
2023-07-21T05:19:14.473Z,57.59
2023-07-21T05:22:37.063Z,57.54
2023-07-21T05:25:38.836Z,57.30
2023-07-21T05:28:40.653Z,57.28
2023-07-21T05:31:42.490Z,57.26
2023-07-21T05:34:57.372Z,57.30
2023-07-21T05:37:59.188Z,57.41
2023-07-21T05:45:26.028Z,56.96
2023-07-21T05:48:29.482Z,57.12
2023-07-21T05:51:36.634Z,56.86
2023-07-21T05:54:49.800Z,57.19
2023-07-21T05:57:54.067Z,56.99
2023-07-21T06:00:55.740Z,57.19
2023-07-21T06:03:57.690Z,57.08
2023-07-21T06:06:59.616Z,56.85
2023-07-21T06:10:25.069Z,56.88
2023-07-21T06:13:40.279Z,57.00
2023-07-21T06:17:08.012Z,56.71
2023-07-21T06:23:13.860Z,56.75
2023-07-21T06:26:16.042Z,56.78
2023-07-21T06:29:18.205Z,57.19
2023-07-21T06:32:20.243Z,57.02
2023-07-21T06:35:42.638Z,57.04
2023-07-21T06:39:10.475Z,57.17
2023-07-21T06:42:45.090Z,57.09
2023-07-21T06:46:24.879Z,57.01
2023-07-21T06:49:50.716Z,56.95
2023-07-21T06:53:06.483Z,56.85
2023-07-21T06:56:08.397Z,56.72
2023-07-21T06:59:09.978Z,56.91
2023-07-21T07:02:11.742Z,56.58
2023-07-21T07:05:15.073Z,56.77
2023-07-21T07:08:17.125Z,56.68
2023-07-21T07:11:18.770Z,56.62
2023-07-21T07:14:20.392Z,56.81
2023-07-21T07:17:21.983Z,56.77
2023-07-21T07:20:24.443Z,56.56
2023-07-21T07:23:26.090Z,56.22
2023-07-21T07:26:29.163Z,56.67
2023-07-21T07:29:31.668Z,56.42
2023-07-21T07:32:33.444Z,56.09
2023-07-21T07:35:35.110Z,56.44
2023-07-21T07:38:36.669Z,56.50
2023-07-21T07:41:39.294Z,56.35
2023-07-21T07:44:40.855Z,55.93
2023-07-21T07:47:44.253Z,56.48
2023-07-21T07:50:45.877Z,56.45
2023-07-21T07:53:47.419Z,56.33
2023-07-21T07:56:49.148Z,56.07
2023-07-21T07:59:51.759Z,56.30
2023-07-21T08:02:53.442Z,56.49
2023-07-21T08:05:55.406Z,56.61
2023-07-21T08:08:56.978Z,56.00
2023-07-21T08:12:00.106Z,56.00
2023-07-21T08:15:02.030Z,56.00
2023-07-21T08:18:04.245Z,56.20
2023-07-21T08:21:23.812Z,55.54
2023-07-21T08:24:25.919Z,55.40
2023-07-21T08:27:29.011Z,55.54
2023-07-21T08:30:38.221Z,55.62
2023-07-21T08:33:45.606Z,55.37
2023-07-21T08:36:54.570Z,55.10
2023-07-21T08:39:58.959Z,55.72
2023-07-21T08:43:04.200Z,55.46
2023-07-21T08:46:09.667Z,55.37
2023-07-21T08:49:13.216Z,55.60
2023-07-21T08:52:15.868Z,55.34
2023-07-21T08:55:17.945Z,55.47
2023-07-21T08:58:20.509Z,55.60
2023-07-21T09:01:22.134Z,55.32
2023-07-21T09:04:25.766Z,55.52
2023-07-21T09:07:27.473Z,55.49
2023-07-21T09:10:34.645Z,55.59
2023-07-21T09:13:36.378Z,55.53
2023-07-21T09:16:41.030Z,55.18
2023-07-21T09:19:45.257Z,55.34
2023-07-21T09:22:50.953Z,55.65
2023-07-21T09:25:54.566Z,55.75
2023-07-21T09:28:56.121Z,55.70
2023-07-21T09:31:58.124Z,55.71
2023-07-21T09:35:02.036Z,55.47
2023-07-21T09:38:03.747Z,55.45
2023-07-21T09:41:13.716Z,55.61
2023-07-21T09:44:16.118Z,55.42
2023-07-21T09:47:18.329Z,55.32
2023-07-21T09:50:20.074Z,54.99
2023-07-21T09:53:26.247Z,55.22
2023-07-21T09:56:31.050Z,55.14
2023-07-21T09:59:35.700Z,55.40
2023-07-21T10:02:37.451Z,55.57
2023-07-21T10:05:41.958Z,55.34
2023-07-21T10:08:44.066Z,55.59
2023-07-21T10:11:47.748Z,55.66
2023-07-21T10:14:52.840Z,55.52
2023-07-21T10:18:04.523Z,55.57
2023-07-21T10:21:07.156Z,55.84
2023-07-21T10:24:09.022Z,55.63
2023-07-21T10:27:22.699Z,55.60
2023-07-21T10:30:24.891Z,55.98
2023-07-21T10:33:30.457Z,55.62
2023-07-21T10:36:53.308Z,55.94
2023-07-21T10:39:55.957Z,55.82
2023-07-21T10:42:57.890Z,55.89
2023-07-21T10:45:59.571Z,56.11
2023-07-21T10:49:01.352Z,55.98
2023-07-21T10:52:03.856Z,56.06
2023-07-21T10:55:05.881Z,56.03
2023-07-21T10:58:07.552Z,55.99
2023-07-21T11:01:09.228Z,56.24
2023-07-21T11:04:12.442Z,55.99
2023-07-21T11:07:14.478Z,56.05
2023-07-21T11:10:16.897Z,56.22
2023-07-21T11:13:18.767Z,56.17
2023-07-21T11:16:20.369Z,56.37
2023-07-21T11:19:23.979Z,56.46
2023-07-21T11:22:25.585Z,56.26
2023-07-21T11:25:27.516Z,56.40
2023-07-21T11:28:30.345Z,56.15
2023-07-21T11:31:34.275Z,56.12
2023-07-21T11:34:37.350Z,56.18
2023-07-21T11:37:41.179Z,55.95
2023-07-21T11:40:46.290Z,56.16
2023-07-21T11:43:50.858Z,55.98
2023-07-21T11:47:11.212Z,55.98
2023-07-21T11:50:14.598Z,56.23
2023-07-21T11:53:16.754Z,56.23
2023-07-21T11:56:18.759Z,56.27
2023-07-21T11:59:21.529Z,56.18
2023-07-21T12:02:24.817Z,56.44
2023-07-21T12:05:26.812Z,56.08
2023-07-21T12:08:28.375Z,56.23
2023-07-21T12:11:29.909Z,56.43
2023-07-21T12:14:31.508Z,56.73
2023-07-21T12:17:33.901Z,56.77
2023-07-21T12:20:35.521Z,56.44
2023-07-21T12:23:37.668Z,56.55
2023-07-21T12:26:39.481Z,56.36
2023-07-21T12:29:46.321Z,56.42
2023-07-21T12:32:48.832Z,56.64
2023-07-21T12:35:50.775Z,56.56
2023-07-21T12:38:52.631Z,56.57
2023-07-21T12:41:57.081Z,56.96
2023-07-21T12:44:59.488Z,57.04
2023-07-21T12:48:01.780Z,57.12
2023-07-21T12:51:03.869Z,56.98
2023-07-21T12:54:05.830Z,57.20
2023-07-21T12:57:08.382Z,56.96
2023-07-21T13:00:14.402Z,56.94
2023-07-21T13:03:16.656Z,57.06
2023-07-21T13:06:18.502Z,57.30
2023-07-21T13:09:20.378Z,57.60
2023-07-21T13:12:22.349Z,57.51
2023-07-21T13:15:24.192Z,57.50
2023-07-21T13:18:25.766Z,57.66
2023-07-21T13:21:27.308Z,57.69
2023-07-21T13:24:29.274Z,57.42
2023-07-21T13:27:30.942Z,57.48
2023-07-21T13:30:32.556Z,57.98
2023-07-21T13:33:34.096Z,57.63
2023-07-21T13:36:35.667Z,57.67
2023-07-21T13:39:37.373Z,57.88
2023-07-21T13:42:39.063Z,58.09
2023-07-21T13:45:40.650Z,58.02
2023-07-21T13:48:42.428Z,57.99
2023-07-21T13:51:44.295Z,58.05
2023-07-21T13:54:45.895Z,57.84
2023-07-21T13:57:47.733Z,58.06
2023-07-21T14:00:49.365Z,57.36
2023-07-21T14:03:50.987Z,57.94
2023-07-21T14:06:52.679Z,58.60
2023-07-21T14:09:54.228Z,58.50
2023-07-21T14:12:55.761Z,58.93
2023-07-21T14:15:57.382Z,59.12
2023-07-21T14:19:00.322Z,58.97
2023-07-21T14:22:01.866Z,59.15
2023-07-21T14:25:04.103Z,59.03
2023-07-21T14:28:05.687Z,59.56
2023-07-21T14:31:07.916Z,59.92
2023-07-21T14:34:09.496Z,60.46
2023-07-21T14:37:11.057Z,59.76
2023-07-21T14:40:13.138Z,59.79
2023-07-21T14:43:14.932Z,59.08
2023-07-21T14:46:16.536Z,59.20
2023-07-21T14:49:18.173Z,59.40
2023-07-21T14:52:19.727Z,60.35
2023-07-21T14:55:21.292Z,60.62
2023-07-21T14:58:22.902Z,60.65
2023-07-21T15:01:24.596Z,60.59
2023-07-21T15:04:26.880Z,61.22
2023-07-21T15:07:28.444Z,60.91
2023-07-21T15:10:30.020Z,60.96
2023-07-21T15:13:31.787Z,61.11
2023-07-21T15:16:33.722Z,61.04
2023-07-21T15:19:35.293Z,61.17
2023-07-21T15:22:36.819Z,61.31
2023-07-21T15:25:38.420Z,61.25
2023-07-21T15:28:40.117Z,61.42
2023-07-21T15:31:42.034Z,60.69
2023-07-21T15:34:43.737Z,60.03
2023-07-21T15:37:45.321Z,60.07
2023-07-21T15:40:46.976Z,59.67
2023-07-21T15:43:48.551Z,59.49
2023-07-21T15:46:50.552Z,59.58
2023-07-21T15:49:52.952Z,59.74
2023-07-21T15:52:54.634Z,59.86
2023-07-21T15:55:56.246Z,60.07
2023-07-21T15:58:57.764Z,60.41
2023-07-21T16:01:59.394Z,60.50
2023-07-21T16:05:01.800Z,60.81
2023-07-21T16:08:04.600Z,60.41
2023-07-21T16:11:06.336Z,59.38
2023-07-21T16:14:07.957Z,59.11
2023-07-21T16:17:09.735Z,59.65
2023-07-21T16:20:13.389Z,59.68
2023-07-21T16:23:14.975Z,59.83
2023-07-21T16:26:19.426Z,59.90
2023-07-21T16:29:21.103Z,60.01
2023-07-21T16:32:22.843Z,60.16
2023-07-21T16:35:24.665Z,59.96
2023-07-21T16:38:26.257Z,59.11
2023-07-21T16:41:28.199Z,59.18
2023-07-21T16:44:34.338Z,59.01
2023-07-21T16:47:36.107Z,58.53
2023-07-21T16:50:39.815Z,58.21
2023-07-21T16:53:41.330Z,56.74
2023-07-21T16:56:42.913Z,56.55
2023-07-21T16:59:55.909Z,56.74
2023-07-21T17:02:58.381Z,57.05
2023-07-21T17:05:59.997Z,56.95
2023-07-21T17:09:01.941Z,57.64
2023-07-21T17:12:03.666Z,57.69
2023-07-21T17:15:06.091Z,57.85
2023-07-21T17:18:08.682Z,57.73
2023-07-21T17:21:10.504Z,57.59
2023-07-21T17:24:12.074Z,57.26
2023-07-21T17:27:13.983Z,56.92
2023-07-21T17:30:15.930Z,57.13
2023-07-21T17:33:17.661Z,57.42
2023-07-21T17:36:19.215Z,57.47
2023-07-21T17:39:20.760Z,57.59
2023-07-21T17:42:22.425Z,58.01
2023-07-21T17:45:24.725Z,58.26
2023-07-21T17:48:26.666Z,58.47
2023-07-21T17:51:28.487Z,58.29
2023-07-21T17:54:30.224Z,58.10
2023-07-21T17:57:32.573Z,57.68
2023-07-21T18:00:39.903Z,57.36
2023-07-21T18:03:44.690Z,57.48
2023-07-21T18:06:46.214Z,57.49
2023-07-21T18:09:47.730Z,57.51
2023-07-21T18:12:49.837Z,57.84
2023-07-21T18:15:51.856Z,58.01
2023-07-21T18:18:53.328Z,57.72
2023-07-21T18:21:55.497Z,57.70
2023-07-21T18:24:57.179Z,57.70
2023-07-21T18:27:58.825Z,57.86
2023-07-21T18:31:00.396Z,57.97
2023-07-21T18:34:02.002Z,57.91
2023-07-21T18:37:03.950Z,57.57
2023-07-21T18:40:15.034Z,57.67
2023-07-21T18:43:16.546Z,57.62
2023-07-21T18:46:18.155Z,57.95
2023-07-21T18:49:21.954Z,57.81
2023-07-21T18:52:25.463Z,57.29
2023-07-21T18:55:27.696Z,57.03
2023-07-21T18:58:29.183Z,56.71
2023-07-21T19:01:31.832Z,56.80
2023-07-21T19:04:33.500Z,56.65
2023-07-21T19:07:35.179Z,56.95
2023-07-21T19:10:39.547Z,57.18
2023-07-21T19:13:41.085Z,57.20
2023-07-21T19:16:42.661Z,57.36
2023-07-21T19:19:45.630Z,57.51
2023-07-21T19:22:47.269Z,57.72
2023-07-21T19:25:52.374Z,57.91
2023-07-21T19:28:54.026Z,58.06
2023-07-21T19:31:55.771Z,58.01
2023-07-21T19:34:57.412Z,57.87
2023-07-21T19:37:59.031Z,58.00
2023-07-21T19:41:06.672Z,57.98
2023-07-21T19:44:08.268Z,57.74
2023-07-21T19:47:10.000Z,58.10
2023-07-21T19:50:12.926Z,57.81
2023-07-21T19:53:14.499Z,57.90
2023-07-21T19:56:17.708Z,57.81
2023-07-21T19:59:19.352Z,57.68
2023-07-21T20:02:21.065Z,57.76
2023-07-21T20:05:22.720Z,57.69
2023-07-21T20:08:24.437Z,57.65
2023-07-21T20:11:26.574Z,57.55
2023-07-21T20:14:28.241Z,57.57
2023-07-21T20:17:29.932Z,57.58
2023-07-21T20:20:33.154Z,57.57
2023-07-21T20:23:35.188Z,57.17
2023-07-21T20:26:37.417Z,57.27
2023-07-21T20:29:39.009Z,57.48
2023-07-21T20:32:43.719Z,57.34
2023-07-21T20:35:47.257Z,57.52
2023-07-21T20:38:48.850Z,57.17
2023-07-21T20:41:50.583Z,57.22
2023-07-21T20:44:52.159Z,57.42
2023-07-21T20:47:53.844Z,57.59
2023-07-21T20:50:57.339Z,57.64
2023-07-21T20:53:58.923Z,57.43
2023-07-21T20:57:00.463Z,57.38
2023-07-21T21:00:02.130Z,57.00
2023-07-21T21:03:04.078Z,57.21
2023-07-21T21:06:05.838Z,57.13
2023-07-21T21:09:07.731Z,57.36
2023-07-21T21:12:11.357Z,56.89
2023-07-21T21:15:12.997Z,56.70
2023-07-21T21:18:15.488Z,57.06
2023-07-21T21:21:17.221Z,56.70
2023-07-21T21:24:19.120Z,57.00
2023-07-21T21:27:20.732Z,56.75
2023-07-21T21:30:23.968Z,56.87
2023-07-21T21:33:26.069Z,56.99
2023-07-21T21:36:27.919Z,56.67
2023-07-21T21:39:29.707Z,57.10
2023-07-21T21:42:34.355Z,56.48
2023-07-21T21:45:35.985Z,56.62
2023-07-21T21:48:37.593Z,56.53
2023-07-21T21:51:39.144Z,56.46
2023-07-21T21:54:40.936Z,56.47
2023-07-21T21:57:43.910Z,56.53
2023-07-21T22:00:45.642Z,56.26
2023-07-21T22:03:47.517Z,56.36
2023-07-21T22:06:49.184Z,56.24
2023-07-21T22:09:50.729Z,56.41
2023-07-21T22:12:52.463Z,56.40
2023-07-21T22:15:54.143Z,56.46
2023-07-21T22:18:55.749Z,56.53
2023-07-21T22:21:57.297Z,56.36
2023-07-21T22:24:58.920Z,56.37
2023-07-21T22:28:03.162Z,56.39
2023-07-21T22:31:15.655Z,56.42
2023-07-21T22:34:17.339Z,56.58
2023-07-21T22:37:18.966Z,56.12
2023-07-21T22:40:20.652Z,56.38
2023-07-21T22:43:22.223Z,56.44
2023-07-21T22:46:24.662Z,56.44
2023-07-21T22:49:26.694Z,56.51
2023-07-21T22:52:28.251Z,56.28
2023-07-21T22:55:29.835Z,56.51
2023-07-21T22:58:31.420Z,56.32
2023-07-21T23:01:33.085Z,56.03
2023-07-21T23:04:34.843Z,56.38
2023-07-21T23:07:36.627Z,56.19
2023-07-21T23:10:38.269Z,56.18
2023-07-21T23:13:39.868Z,56.59
2023-07-21T23:16:41.436Z,56.47
2023-07-21T23:19:42.994Z,56.07
2023-07-21T23:22:44.579Z,56.65
2023-07-21T23:25:46.160Z,56.43
2023-07-21T23:28:48.421Z,56.54
2023-07-21T23:31:50.002Z,56.60
2023-07-21T23:34:51.648Z,56.33
2023-07-21T23:37:53.219Z,56.57
2023-07-21T23:40:54.891Z,56.47
2023-07-21T23:43:56.475Z,56.84
2023-07-21T23:46:58.096Z,56.84
2023-07-21T23:49:59.699Z,56.84
2023-07-21T23:53:01.277Z,56.55
2023-07-21T23:56:02.834Z,56.51
2023-07-21T23:59:04.406Z,56.79
